sensor_id;sensor_type;location;lat;lon;timestamp;P1;durP1;ratioP1;P2;durP2;ratioP2
23608;SDS011;11982;50.810;4.442;2023-11-19T00:00:29;17.63;;;7.20;;
23608;SDS011;11982;50.810;4.442;2023-11-19T00:02:54;17.15;;;7.90;;
23608;SDS011;11982;50.810;4.442;2023-11-19T00:05:20;12.43;;;5.72;;
23608;SDS011;11982;50.810;4.442;2023-11-19T00:07:46;17.63;;;7.20;;
23608;SDS011;11982;50.810;4.442;2023-11-19T00:10:12;17.48;;;6.57;;
23608;SDS011;11982;50.810;4.442;2023-11-19T00:12:42;19.30;;;7.20;;
23608;SDS011;11982;50.810;4.442;2023-11-19T00:15:09;17.58;;;6.57;;
23608;SDS011;11982;50.810;4.442;2023-11-19T00:17:38;23.98;;;7.45;;
23608;SDS011;11982;50.810;4.442;2023-11-19T00:20:13;23.10;;;6.10;;
23608;SDS011;11982;50.810;4.442;2023-11-19T00:22:41;21.00;;;6.22;;
23608;SDS011;11982;50.810;4.442;2023-11-19T00:25:07;21.10;;;5.88;;
23608;SDS011;11982;50.810;4.442;2023-11-19T00:27:34;23.10;;;5.65;;
23608;SDS011;11982;50.810;4.442;2023-11-19T00:30:00;22.80;;;6.18;;
23608;SDS011;11982;50.810;4.442;2023-11-19T00:32:26;21.45;;;6.38;;
23608;SDS011;11982;50.810;4.442;2023-11-19T00:34:52;23.92;;;6.10;;
23608;SDS011;11982;50.810;4.442;2023-11-19T00:37:17;23.02;;;5.60;;
23608;SDS011;11982;50.810;4.442;2023-11-19T00:39:43;19.63;;;5.85;;
23608;SDS011;11982;50.810;4.442;2023-11-19T00:42:09;22.35;;;5.78;;
23608;SDS011;11982;50.810;4.442;2023-11-19T00:44:38;22.92;;;5.78;;
23608;SDS011;11982;50.810;4.442;2023-11-19T00:47:04;21.70;;;5.45;;
23608;SDS011;11982;50.810;4.442;2023-11-19T00:49:30;25.30;;;6.07;;
23608;SDS011;11982;50.810;4.442;2023-11-19T00:51:58;18.02;;;5.28;;
23608;SDS011;11982;50.810;4.442;2023-11-19T00:54:24;21.83;;;4.82;;
23608;SDS011;11982;50.810;4.442;2023-11-19T00:56:51;24.38;;;4.93;;
23608;SDS011;11982;50.810;4.442;2023-11-19T00:59:18;23.48;;;5.40;;
23608;SDS011;11982;50.810;4.442;2023-11-19T01:01:43;22.85;;;5.13;;
23608;SDS011;11982;50.810;4.442;2023-11-19T01:04:09;22.23;;;5.18;;
23608;SDS011;11982;50.810;4.442;2023-11-19T01:06:35;20.13;;;4.63;;
23608;SDS011;11982;50.810;4.442;2023-11-19T01:09:00;23.52;;;5.18;;
23608;SDS011;11982;50.810;4.442;2023-11-19T01:11:27;30.77;;;6.10;;
23608;SDS011;11982;50.810;4.442;2023-11-19T01:13:53;20.58;;;4.10;;
23608;SDS011;11982;50.810;4.442;2023-11-19T01:16:19;27.83;;;4.30;;
23608;SDS011;11982;50.810;4.442;2023-11-19T01:18:48;26.33;;;5.47;;
23608;SDS011;11982;50.810;4.442;2023-11-19T01:21:14;31.10;;;5.38;;
23608;SDS011;11982;50.810;4.442;2023-11-19T01:23:41;28.90;;;4.75;;
23608;SDS011;11982;50.810;4.442;2023-11-19T01:26:11;29.13;;;4.20;;
23608;SDS011;11982;50.810;4.442;2023-11-19T01:28:40;32.35;;;5.13;;
23608;SDS011;11982;50.810;4.442;2023-11-19T01:31:09;31.88;;;4.40;;
23608;SDS011;11982;50.810;4.442;2023-11-19T01:33:40;22.55;;;4.43;;
23608;SDS011;11982;50.810;4.442;2023-11-19T01:36:07;23.83;;;4.45;;
23608;SDS011;11982;50.810;4.442;2023-11-19T01:38:33;33.85;;;5.15;;
23608;SDS011;11982;50.810;4.442;2023-11-19T01:40:59;27.55;;;4.13;;
23608;SDS011;11982;50.810;4.442;2023-11-19T01:43:37;19.17;;;4.10;;
23608;SDS011;11982;50.810;4.442;2023-11-19T01:46:06;25.45;;;4.68;;
23608;SDS011;11982;50.810;4.442;2023-11-19T01:48:35;29.55;;;5.80;;
23608;SDS011;11982;50.810;4.442;2023-11-19T01:51:06;24.75;;;4.55;;
23608;SDS011;11982;50.810;4.442;2023-11-19T01:53:33;23.23;;;4.65;;
23608;SDS011;11982;50.810;4.442;2023-11-19T01:56:01;39.03;;;5.05;;
23608;SDS011;11982;50.810;4.442;2023-11-19T01:58:28;24.40;;;4.15;;
23608;SDS011;11982;50.810;4.442;2023-11-19T02:00:55;30.80;;;4.10;;
23608;SDS011;11982;50.810;4.442;2023-11-19T02:03:22;29.20;;;4.55;;
23608;SDS011;11982;50.810;4.442;2023-11-19T02:05:51;32.42;;;5.07;;
23608;SDS011;11982;50.810;4.442;2023-11-19T02:08:18;26.88;;;5.15;;
23608;SDS011;11982;50.810;4.442;2023-11-19T02:10:45;30.15;;;4.07;;
23608;SDS011;11982;50.810;4.442;2023-11-19T02:13:10;31.23;;;5.57;;
23608;SDS011;11982;50.810;4.442;2023-11-19T02:15:38;29.73;;;5.15;;
23608;SDS011;11982;50.810;4.442;2023-11-19T02:18:18;35.92;;;5.78;;
23608;SDS011;11982;50.810;4.442;2023-11-19T02:20:49;34.67;;;5.05;;
23608;SDS011;11982;50.810;4.442;2023-11-19T02:23:15;31.95;;;4.78;;
23608;SDS011;11982;50.810;4.442;2023-11-19T02:25:43;29.40;;;4.57;;
23608;SDS011;11982;50.810;4.442;2023-11-19T02:28:12;25.98;;;4.95;;
23608;SDS011;11982;50.810;4.442;2023-11-19T02:30:38;28.63;;;4.95;;
23608;SDS011;11982;50.810;4.442;2023-11-19T02:33:03;24.33;;;4.95;;
23608;SDS011;11982;50.810;4.442;2023-11-19T02:35:32;28.75;;;4.57;;
23608;SDS011;11982;50.810;4.442;2023-11-19T02:37:58;32.72;;;4.70;;
23608;SDS011;11982;50.810;4.442;2023-11-19T02:40:25;30.02;;;5.07;;
23608;SDS011;11982;50.810;4.442;2023-11-19T02:42:54;37.33;;;4.80;;
23608;SDS011;11982;50.810;4.442;2023-11-19T02:45:21;26.45;;;5.10;;
23608;SDS011;11982;50.810;4.442;2023-11-19T02:47:49;34.25;;;4.68;;
23608;SDS011;11982;50.810;4.442;2023-11-19T02:50:15;24.80;;;4.68;;
23608;SDS011;11982;50.810;4.442;2023-11-19T02:52:41;31.20;;;4.45;;
23608;SDS011;11982;50.810;4.442;2023-11-19T02:55:11;33.42;;;4.22;;
23608;SDS011;11982;50.810;4.442;2023-11-19T02:57:40;26.02;;;4.30;;
23608;SDS011;11982;50.810;4.442;2023-11-19T03:00:17;27.77;;;4.38;;
23608;SDS011;11982;50.810;4.442;2023-11-19T03:05:23;30.13;;;4.68;;
23608;SDS011;11982;50.810;4.442;2023-11-19T03:07:49;24.38;;;4.05;;
23608;SDS011;11982;50.810;4.442;2023-11-19T03:10:15;31.23;;;5.00;;
23608;SDS011;11982;50.810;4.442;2023-11-19T03:12:40;37.05;;;5.80;;
23608;SDS011;11982;50.810;4.442;2023-11-19T03:15:07;29.45;;;4.95;;
23608;SDS011;11982;50.810;4.442;2023-11-19T03:17:38;28.58;;;5.43;;
23608;SDS011;11982;50.810;4.442;2023-11-19T03:20:05;35.33;;;5.15;;
23608;SDS011;11982;50.810;4.442;2023-11-19T03:22:34;26.58;;;5.80;;
23608;SDS011;11982;50.810;4.442;2023-11-19T03:25:02;36.78;;;4.28;;
23608;SDS011;11982;50.810;4.442;2023-11-19T03:27:27;27.60;;;4.60;;
23608;SDS011;11982;50.810;4.442;2023-11-19T03:29:53;33.67;;;3.90;;
23608;SDS011;11982;50.810;4.442;2023-11-19T03:32:19;32.60;;;5.40;;
23608;SDS011;11982;50.810;4.442;2023-11-19T03:34:45;42.03;;;5.50;;
23608;SDS011;11982;50.810;4.442;2023-11-19T03:37:10;36.47;;;5.85;;
23608;SDS011;11982;50.810;4.442;2023-11-19T03:39:36;32.17;;;5.07;;
23608;SDS011;11982;50.810;4.442;2023-11-19T03:42:02;29.63;;;4.13;;
23608;SDS011;11982;50.810;4.442;2023-11-19T03:44:28;30.40;;;4.35;;
23608;SDS011;11982;50.810;4.442;2023-11-19T03:46:54;26.50;;;5.07;;
23608;SDS011;11982;50.810;4.442;2023-11-19T03:49:19;32.78;;;5.13;;
23608;SDS011;11982;50.810;4.442;2023-11-19T03:51:45;35.85;;;4.85;;
23608;SDS011;11982;50.810;4.442;2023-11-19T03:54:11;34.92;;;4.85;;
23608;SDS011;11982;50.810;4.442;2023-11-19T03:56:36;42.60;;;6.22;;
23608;SDS011;11982;50.810;4.442;2023-11-19T03:59:02;28.52;;;4.47;;
23608;SDS011;11982;50.810;4.442;2023-11-19T04:01:28;34.35;;;5.32;;
23608;SDS011;11982;50.810;4.442;2023-11-19T04:03:53;33.20;;;5.20;;
23608;SDS011;11982;50.810;4.442;2023-11-19T04:06:20;37.83;;;5.72;;
23608;SDS011;11982;50.810;4.442;2023-11-19T04:08:46;36.10;;;4.57;;
23608;SDS011;11982;50.810;4.442;2023-11-19T04:11:12;32.78;;;5.00;;
23608;SDS011;11982;50.810;4.442;2023-11-19T04:13:38;40.03;;;6.03;;
23608;SDS011;11982;50.810;4.442;2023-11-19T04:16:03;38.95;;;5.18;;
23608;SDS011;11982;50.810;4.442;2023-11-19T04:18:29;35.30;;;5.05;;
23608;SDS011;11982;50.810;4.442;2023-11-19T04:20:57;36.58;;;5.32;;
23608;SDS011;11982;50.810;4.442;2023-11-19T04:23:22;37.13;;;4.93;;
23608;SDS011;11982;50.810;4.442;2023-11-19T04:25:50;37.60;;;5.10;;
23608;SDS011;11982;50.810;4.442;2023-11-19T04:28:15;42.83;;;5.63;;
23608;SDS011;11982;50.810;4.442;2023-11-19T04:30:41;37.35;;;5.43;;
23608;SDS011;11982;50.810;4.442;2023-11-19T04:33:07;39.53;;;6.10;;
23608;SDS011;11982;50.810;4.442;2023-11-19T04:35:32;49.65;;;6.65;;
23608;SDS011;11982;50.810;4.442;2023-11-19T04:37:58;43.38;;;5.78;;
23608;SDS011;11982;50.810;4.442;2023-11-19T04:40:24;43.35;;;6.85;;
23608;SDS011;11982;50.810;4.442;2023-11-19T04:42:50;44.13;;;5.53;;
23608;SDS011;11982;50.810;4.442;2023-11-19T04:45:15;41.65;;;6.55;;
23608;SDS011;11982;50.810;4.442;2023-11-19T04:47:42;44.03;;;4.57;;
23608;SDS011;11982;50.810;4.442;2023-11-19T04:50:08;48.33;;;6.65;;
23608;SDS011;11982;50.810;4.442;2023-11-19T04:52:39;37.33;;;5.97;;
23608;SDS011;11982;50.810;4.442;2023-11-19T04:55:05;46.55;;;6.28;;
23608;SDS011;11982;50.810;4.442;2023-11-19T04:57:31;36.22;;;6.57;;
23608;SDS011;11982;50.810;4.442;2023-11-19T04:59:57;51.95;;;7.18;;
23608;SDS011;11982;50.810;4.442;2023-11-19T05:02:23;38.10;;;5.13;;
23608;SDS011;11982;50.810;4.442;2023-11-19T05:04:49;48.28;;;5.63;;
23608;SDS011;11982;50.810;4.442;2023-11-19T05:07:15;36.30;;;6.65;;
23608;SDS011;11982;50.810;4.442;2023-11-19T05:09:41;41.63;;;6.13;;
23608;SDS011;11982;50.810;4.442;2023-11-19T05:12:08;34.17;;;5.85;;
23608;SDS011;11982;50.810;4.442;2023-11-19T05:14:37;38.60;;;5.40;;
23608;SDS011;11982;50.810;4.442;2023-11-19T05:17:02;37.25;;;4.60;;
23608;SDS011;11982;50.810;4.442;2023-11-19T05:19:28;43.70;;;5.40;;
23608;SDS011;11982;50.810;4.442;2023-11-19T05:21:54;43.63;;;5.95;;
23608;SDS011;11982;50.810;4.442;2023-11-19T05:24:19;40.42;;;6.22;;
23608;SDS011;11982;50.810;4.442;2023-11-19T05:26:45;40.33;;;6.10;;
23608;SDS011;11982;50.810;4.442;2023-11-19T05:29:12;40.90;;;5.15;;
23608;SDS011;11982;50.810;4.442;2023-11-19T05:31:38;53.33;;;6.80;;
23608;SDS011;11982;50.810;4.442;2023-11-19T05:34:03;44.25;;;6.28;;
23608;SDS011;11982;50.810;4.442;2023-11-19T05:36:29;52.97;;;6.95;;
23608;SDS011;11982;50.810;4.442;2023-11-19T05:38:55;51.38;;;6.30;;
23608;SDS011;11982;50.810;4.442;2023-11-19T05:41:21;44.55;;;5.75;;
23608;SDS011;11982;50.810;4.442;2023-11-19T05:43:46;53.03;;;6.50;;
23608;SDS011;11982;50.810;4.442;2023-11-19T05:46:12;52.15;;;6.53;;
23608;SDS011;11982;50.810;4.442;2023-11-19T05:48:38;66.57;;;9.00;;
23608;SDS011;11982;50.810;4.442;2023-11-19T05:51:04;46.92;;;6.40;;
23608;SDS011;11982;50.810;4.442;2023-11-19T05:53:30;50.00;;;7.18;;
23608;SDS011;11982;50.810;4.442;2023-11-19T05:55:56;48.10;;;6.20;;
23608;SDS011;11982;50.810;4.442;2023-11-19T05:58:25;38.53;;;5.95;;
23608;SDS011;11982;50.810;4.442;2023-11-19T06:00:53;56.55;;;7.25;;
23608;SDS011;11982;50.810;4.442;2023-11-19T06:03:22;44.70;;;7.22;;
23608;SDS011;11982;50.810;4.442;2023-11-19T06:05:48;52.35;;;6.47;;
23608;SDS011;11982;50.810;4.442;2023-11-19T06:08:15;53.22;;;7.60;;
23608;SDS011;11982;50.810;4.442;2023-11-19T06:10:41;50.97;;;6.82;;
23608;SDS011;11982;50.810;4.442;2023-11-19T06:13:07;46.72;;;6.00;;
23608;SDS011;11982;50.810;4.442;2023-11-19T06:15:35;50.22;;;7.30;;
23608;SDS011;11982;50.810;4.442;2023-11-19T06:18:01;54.78;;;6.68;;
23608;SDS011;11982;50.810;4.442;2023-11-19T06:20:28;47.95;;;7.18;;
23608;SDS011;11982;50.810;4.442;2023-11-19T06:22:55;45.97;;;6.32;;
23608;SDS011;11982;50.810;4.442;2023-11-19T06:25:21;48.80;;;6.85;;
23608;SDS011;11982;50.810;4.442;2023-11-19T06:27:49;44.70;;;6.63;;
23608;SDS011;11982;50.810;4.442;2023-11-19T06:30:15;39.58;;;5.45;;
23608;SDS011;11982;50.810;4.442;2023-11-19T06:32:41;55.97;;;6.90;;
23608;SDS011;11982;50.810;4.442;2023-11-19T06:35:07;52.75;;;6.68;;
23608;SDS011;11982;50.810;4.442;2023-11-19T06:37:34;50.42;;;6.85;;
23608;SDS011;11982;50.810;4.442;2023-11-19T06:40:06;44.28;;;6.55;;
23608;SDS011;11982;50.810;4.442;2023-11-19T06:42:34;44.42;;;6.18;;
23608;SDS011;11982;50.810;4.442;2023-11-19T06:45:00;48.53;;;6.63;;
23608;SDS011;11982;50.810;4.442;2023-11-19T06:47:27;46.42;;;6.07;;
23608;SDS011;11982;50.810;4.442;2023-11-19T06:49:53;56.00;;;6.70;;
23608;SDS011;11982;50.810;4.442;2023-11-19T06:52:19;49.78;;;6.05;;
23608;SDS011;11982;50.810;4.442;2023-11-19T06:54:45;52.10;;;6.00;;
23608;SDS011;11982;50.810;4.442;2023-11-19T06:57:11;45.75;;;6.18;;
23608;SDS011;11982;50.810;4.442;2023-11-19T06:59:37;45.10;;;6.07;;
23608;SDS011;11982;50.810;4.442;2023-11-19T07:02:03;53.70;;;7.78;;
23608;SDS011;11982;50.810;4.442;2023-11-19T07:04:32;54.35;;;6.68;;
23608;SDS011;11982;50.810;4.442;2023-11-19T07:06:58;57.30;;;6.38;;
23608;SDS011;11982;50.810;4.442;2023-11-19T07:09:27;53.92;;;6.90;;
23608;SDS011;11982;50.810;4.442;2023-11-19T07:11:53;47.42;;;6.35;;
23608;SDS011;11982;50.810;4.442;2023-11-19T07:14:18;54.38;;;7.40;;
23608;SDS011;11982;50.810;4.442;2023-11-19T07:16:44;53.25;;;7.47;;
23608;SDS011;11982;50.810;4.442;2023-11-19T07:19:11;60.50;;;7.38;;
23608;SDS011;11982;50.810;4.442;2023-11-19T07:21:37;52.00;;;7.20;;
23608;SDS011;11982;50.810;4.442;2023-11-19T07:24:09;52.65;;;6.97;;
23608;SDS011;11982;50.810;4.442;2023-11-19T07:26:35;51.30;;;7.65;;
23608;SDS011;11982;50.810;4.442;2023-11-19T07:29:02;49.80;;;6.60;;
23608;SDS011;11982;50.810;4.442;2023-11-19T07:31:28;45.35;;;6.97;;
23608;SDS011;11982;50.810;4.442;2023-11-19T07:33:54;58.80;;;6.68;;
23608;SDS011;11982;50.810;4.442;2023-11-19T07:36:19;51.63;;;7.03;;
23608;SDS011;11982;50.810;4.442;2023-11-19T07:38:45;50.78;;;6.70;;
23608;SDS011;11982;50.810;4.442;2023-11-19T07:41:12;48.58;;;6.55;;
23608;SDS011;11982;50.810;4.442;2023-11-19T07:43:44;43.92;;;5.95;;
23608;SDS011;11982;50.810;4.442;2023-11-19T07:46:12;48.05;;;6.50;;
23608;SDS011;11982;50.810;4.442;2023-11-19T07:48:38;56.30;;;7.20;;
23608;SDS011;11982;50.810;4.442;2023-11-19T07:51:05;37.67;;;6.38;;
23608;SDS011;11982;50.810;4.442;2023-11-19T07:53:31;53.83;;;6.68;;
23608;SDS011;11982;50.810;4.442;2023-11-19T07:55:58;47.75;;;5.82;;
23608;SDS011;11982;50.810;4.442;2023-11-19T07:58:24;50.42;;;6.10;;
23608;SDS011;11982;50.810;4.442;2023-11-19T08:00:50;40.25;;;6.22;;
23608;SDS011;11982;50.810;4.442;2023-11-19T08:03:17;40.03;;;5.43;;
23608;SDS011;11982;50.810;4.442;2023-11-19T08:05:44;46.85;;;6.43;;
23608;SDS011;11982;50.810;4.442;2023-11-19T08:08:11;42.15;;;6.50;;
23608;SDS011;11982;50.810;4.442;2023-11-19T08:10:37;42.17;;;5.55;;
23608;SDS011;11982;50.810;4.442;2023-11-19T08:13:02;40.00;;;6.03;;
23608;SDS011;11982;50.810;4.442;2023-11-19T08:18:28;45.10;;;6.15;;
23608;SDS011;11982;50.810;4.442;2023-11-19T08:20:54;47.83;;;7.70;;
23608;SDS011;11982;50.810;4.442;2023-11-19T08:23:21;44.00;;;6.05;;
23608;SDS011;11982;50.810;4.442;2023-11-19T08:25:48;43.70;;;6.88;;
23608;SDS011;11982;50.810;4.442;2023-11-19T08:28:14;39.38;;;6.90;;
23608;SDS011;11982;50.810;4.442;2023-11-19T08:30:40;45.17;;;6.22;;
23608;SDS011;11982;50.810;4.442;2023-11-19T08:33:06;44.78;;;5.97;;
23608;SDS011;11982;50.810;4.442;2023-11-19T08:35:32;49.85;;;6.45;;
23608;SDS011;11982;50.810;4.442;2023-11-19T08:37:58;38.00;;;5.47;;
23608;SDS011;11982;50.810;4.442;2023-11-19T08:40:24;35.25;;;5.40;;
23608;SDS011;11982;50.810;4.442;2023-11-19T08:42:51;45.28;;;6.32;;
23608;SDS011;11982;50.810;4.442;2023-11-19T08:45:16;49.30;;;6.97;;
23608;SDS011;11982;50.810;4.442;2023-11-19T08:47:42;42.88;;;5.68;;
23608;SDS011;11982;50.810;4.442;2023-11-19T08:50:10;38.90;;;6.85;;
23608;SDS011;11982;50.810;4.442;2023-11-19T08:52:36;41.67;;;6.25;;
23608;SDS011;11982;50.810;4.442;2023-11-19T08:55:02;46.38;;;6.05;;
23608;SDS011;11982;50.810;4.442;2023-11-19T08:57:30;47.05;;;7.13;;
23608;SDS011;11982;50.810;4.442;2023-11-19T08:59:56;43.60;;;5.97;;
23608;SDS011;11982;50.810;4.442;2023-11-19T09:02:21;49.92;;;6.47;;
23608;SDS011;11982;50.810;4.442;2023-11-19T09:04:47;35.47;;;6.03;;
23608;SDS011;11982;50.810;4.442;2023-11-19T09:07:13;42.55;;;6.15;;
23608;SDS011;11982;50.810;4.442;2023-11-19T09:09:38;43.30;;;5.50;;
23608;SDS011;11982;50.810;4.442;2023-11-19T09:12:04;43.35;;;6.03;;
23608;SDS011;11982;50.810;4.442;2023-11-19T09:14:30;40.58;;;5.95;;
23608;SDS011;11982;50.810;4.442;2023-11-19T09:16:56;31.45;;;4.75;;
23608;SDS011;11982;50.810;4.442;2023-11-19T09:19:23;30.67;;;5.18;;
23608;SDS011;11982;50.810;4.442;2023-11-19T09:21:49;33.00;;;4.55;;
23608;SDS011;11982;50.810;4.442;2023-11-19T09:24:15;38.97;;;6.07;;
23608;SDS011;11982;50.810;4.442;2023-11-19T09:26:41;34.03;;;4.75;;
23608;SDS011;11982;50.810;4.442;2023-11-19T09:29:09;29.23;;;4.45;;
23608;SDS011;11982;50.810;4.442;2023-11-19T09:31:37;35.20;;;5.47;;
23608;SDS011;11982;50.810;4.442;2023-11-19T09:34:03;32.60;;;5.18;;
23608;SDS011;11982;50.810;4.442;2023-11-19T09:36:29;32.72;;;4.88;;
23608;SDS011;11982;50.810;4.442;2023-11-19T09:38:55;33.75;;;4.70;;
23608;SDS011;11982;50.810;4.442;2023-11-19T09:41:23;34.80;;;6.05;;
23608;SDS011;11982;50.810;4.442;2023-11-19T09:43:53;35.80;;;5.65;;
23608;SDS011;11982;50.810;4.442;2023-11-19T09:46:18;35.65;;;5.32;;
23608;SDS011;11982;50.810;4.442;2023-11-19T09:48:46;30.73;;;5.22;;
23608;SDS011;11982;50.810;4.442;2023-11-19T09:51:13;39.35;;;6.70;;
23608;SDS011;11982;50.810;4.442;2023-11-19T09:53:39;36.33;;;5.15;;
23608;SDS011;11982;50.810;4.442;2023-11-19T09:56:05;36.22;;;5.35;;
23608;SDS011;11982;50.810;4.442;2023-11-19T09:58:32;34.80;;;5.13;;
23608;SDS011;11982;50.810;4.442;2023-11-19T10:00:59;36.92;;;5.57;;
23608;SDS011;11982;50.810;4.442;2023-11-19T10:03:30;40.17;;;5.85;;
23608;SDS011;11982;50.810;4.442;2023-11-19T10:06:06;38.70;;;5.53;;
23608;SDS011;11982;50.810;4.442;2023-11-19T10:08:32;34.60;;;5.78;;
23608;SDS011;11982;50.810;4.442;2023-11-19T10:10:58;34.47;;;5.68;;
23608;SDS011;11982;50.810;4.442;2023-11-19T10:13:30;34.42;;;5.03;;
23608;SDS011;11982;50.810;4.442;2023-11-19T10:15:55;39.33;;;5.40;;
23608;SDS011;11982;50.810;4.442;2023-11-19T10:18:25;38.55;;;4.80;;
23608;SDS011;11982;50.810;4.442;2023-11-19T10:20:51;35.30;;;6.30;;
23608;SDS011;11982;50.810;4.442;2023-11-19T10:23:18;38.65;;;5.95;;
23608;SDS011;11982;50.810;4.442;2023-11-19T10:25:43;36.10;;;5.55;;
23608;SDS011;11982;50.810;4.442;2023-11-19T10:28:09;32.45;;;5.18;;
23608;SDS011;11982;50.810;4.442;2023-11-19T10:30:35;31.25;;;5.65;;
23608;SDS011;11982;50.810;4.442;2023-11-19T10:35:36;29.42;;;5.75;;
23608;SDS011;11982;50.810;4.442;2023-11-19T10:38:17;32.15;;;5.43;;
23608;SDS011;11982;50.810;4.442;2023-11-19T10:40:43;28.58;;;4.85;;
23608;SDS011;11982;50.810;4.442;2023-11-19T10:43:10;27.52;;;4.68;;
23608;SDS011;11982;50.810;4.442;2023-11-19T10:45:36;28.80;;;4.45;;
23608;SDS011;11982;50.810;4.442;2023-11-19T10:48:03;21.08;;;4.00;;
23608;SDS011;11982;50.810;4.442;2023-11-19T10:50:36;24.42;;;3.80;;
23608;SDS011;11982;50.810;4.442;2023-11-19T10:53:03;29.45;;;4.30;;
23608;SDS011;11982;50.810;4.442;2023-11-19T10:55:34;25.50;;;4.53;;
23608;SDS011;11982;50.810;4.442;2023-11-19T10:58:11;33.55;;;5.35;;
23608;SDS011;11982;50.810;4.442;2023-11-19T11:03:18;34.05;;;5.40;;
23608;SDS011;11982;50.810;4.442;2023-11-19T11:05:48;29.63;;;5.05;;
23608;SDS011;11982;50.810;4.442;2023-11-19T11:08:14;34.22;;;5.22;;
23608;SDS011;11982;50.810;4.442;2023-11-19T11:10:45;35.38;;;4.93;;
23608;SDS011;11982;50.810;4.442;2023-11-19T11:13:16;33.17;;;4.97;;
23608;SDS011;11982;50.810;4.442;2023-11-19T11:15:43;38.92;;;5.88;;
23608;SDS011;11982;50.810;4.442;2023-11-19T11:18:11;31.52;;;5.25;;
23608;SDS011;11982;50.810;4.442;2023-11-19T11:20:38;32.30;;;5.13;;
23608;SDS011;11982;50.810;4.442;2023-11-19T11:26:08;34.50;;;6.25;;
23608;SDS011;11982;50.810;4.442;2023-11-19T11:31:34;46.63;;;6.22;;
23608;SDS011;11982;50.810;4.442;2023-11-19T11:36:46;32.78;;;5.60;;
23608;SDS011;11982;50.810;4.442;2023-11-19T11:39:33;34.22;;;5.75;;
23608;SDS011;11982;50.810;4.442;2023-11-19T11:44:58;43.70;;;5.75;;
23608;SDS011;11982;50.810;4.442;2023-11-19T11:47:25;49.03;;;6.47;;
23608;SDS011;11982;50.810;4.442;2023-11-19T11:49:51;37.72;;;5.60;;
23608;SDS011;11982;50.810;4.442;2023-11-19T11:52:18;46.33;;;5.65;;
23608;SDS011;11982;50.810;4.442;2023-11-19T11:54:44;41.25;;;5.97;;
23608;SDS011;11982;50.810;4.442;2023-11-19T11:57:11;32.25;;;5.40;;
23608;SDS011;11982;50.810;4.442;2023-11-19T12:02:14;41.70;;;6.05;;
23608;SDS011;11982;50.810;4.442;2023-11-19T12:04:41;31.70;;;6.32;;
23608;SDS011;11982;50.810;4.442;2023-11-19T12:09:41;35.17;;;5.05;;
23608;SDS011;11982;50.810;4.442;2023-11-19T12:12:17;29.42;;;5.03;;
23608;SDS011;11982;50.810;4.442;2023-11-19T12:15:00;22.25;;;4.07;;
23608;SDS011;11982;50.810;4.442;2023-11-19T12:19:59;24.70;;;4.30;;
23608;SDS011;11982;50.810;4.442;2023-11-19T12:22:31;28.08;;;4.80;;
23608;SDS011;11982;50.810;4.442;2023-11-19T12:24:56;27.67;;;4.22;;
23608;SDS011;11982;50.810;4.442;2023-11-19T12:27:23;18.13;;;3.80;;
23608;SDS011;11982;50.810;4.442;2023-11-19T12:29:49;31.08;;;5.05;;
23608;SDS011;11982;50.810;4.442;2023-11-19T12:32:15;25.40;;;4.85;;
23608;SDS011;11982;50.810;4.442;2023-11-19T12:34:41;27.05;;;5.18;;
23608;SDS011;11982;50.810;4.442;2023-11-19T12:37:07;33.60;;;4.90;;
23608;SDS011;11982;50.810;4.442;2023-11-19T12:39:35;29.45;;;4.50;;
23608;SDS011;11982;50.810;4.442;2023-11-19T12:42:00;27.63;;;4.63;;
23608;SDS011;11982;50.810;4.442;2023-11-19T12:44:26;35.22;;;4.78;;
23608;SDS011;11982;50.810;4.442;2023-11-19T12:46:59;35.10;;;5.35;;
23608;SDS011;11982;50.810;4.442;2023-11-19T12:49:26;33.40;;;5.50;;
23608;SDS011;11982;50.810;4.442;2023-11-19T12:51:52;37.35;;;5.97;;
23608;SDS011;11982;50.810;4.442;2023-11-19T12:54:18;35.22;;;6.20;;
23608;SDS011;11982;50.810;4.442;2023-11-19T12:56:53;36.55;;;6.03;;
23608;SDS011;11982;50.810;4.442;2023-11-19T12:59:18;40.40;;;5.95;;
23608;SDS011;11982;50.810;4.442;2023-11-19T13:01:57;38.72;;;5.43;;
23608;SDS011;11982;50.810;4.442;2023-11-19T13:04:23;37.20;;;6.53;;
23608;SDS011;11982;50.810;4.442;2023-11-19T13:06:53;41.28;;;5.93;;
23608;SDS011;11982;50.810;4.442;2023-11-19T13:09:25;38.38;;;5.93;;
23608;SDS011;11982;50.810;4.442;2023-11-19T13:11:52;31.50;;;5.30;;
23608;SDS011;11982;50.810;4.442;2023-11-19T13:14:19;32.78;;;5.65;;
23608;SDS011;11982;50.810;4.442;2023-11-19T13:16:45;33.42;;;5.32;;
23608;SDS011;11982;50.810;4.442;2023-11-19T13:19:12;41.03;;;6.10;;
23608;SDS011;11982;50.810;4.442;2023-11-19T13:21:38;30.85;;;5.38;;
23608;SDS011;11982;50.810;4.442;2023-11-19T13:24:07;33.03;;;5.00;;
23608;SDS011;11982;50.810;4.442;2023-11-19T13:26:33;34.75;;;4.70;;
23608;SDS011;11982;50.810;4.442;2023-11-19T13:29:00;31.38;;;4.88;;
23608;SDS011;11982;50.810;4.442;2023-11-19T13:31:26;34.03;;;5.53;;
23608;SDS011;11982;50.810;4.442;2023-11-19T13:33:51;36.20;;;4.80;;
23608;SDS011;11982;50.810;4.442;2023-11-19T13:36:17;39.50;;;5.90;;
23608;SDS011;11982;50.810;4.442;2023-11-19T13:38:43;36.42;;;5.68;;
23608;SDS011;11982;50.810;4.442;2023-11-19T13:41:09;37.97;;;5.63;;
23608;SDS011;11982;50.810;4.442;2023-11-19T13:43:36;37.65;;;6.28;;
23608;SDS011;11982;50.810;4.442;2023-11-19T13:46:02;36.17;;;5.22;;
23608;SDS011;11982;50.810;4.442;2023-11-19T13:48:28;36.85;;;5.25;;
23608;SDS011;11982;50.810;4.442;2023-11-19T13:50:55;32.80;;;5.22;;
23608;SDS011;11982;50.810;4.442;2023-11-19T13:53:21;43.10;;;5.95;;
23608;SDS011;11982;50.810;4.442;2023-11-19T13:55:48;33.70;;;5.93;;
23608;SDS011;11982;50.810;4.442;2023-11-19T13:58:14;38.75;;;5.47;;
23608;SDS011;11982;50.810;4.442;2023-11-19T14:00:41;34.50;;;5.13;;
23608;SDS011;11982;50.810;4.442;2023-11-19T14:03:08;43.30;;;5.70;;
23608;SDS011;11982;50.810;4.442;2023-11-19T14:05:37;30.58;;;5.88;;
23608;SDS011;11982;50.810;4.442;2023-11-19T14:08:04;37.85;;;5.68;;
23608;SDS011;11982;50.810;4.442;2023-11-19T14:10:36;37.72;;;5.50;;
23608;SDS011;11982;50.810;4.442;2023-11-19T14:13:04;35.53;;;5.57;;
23608;SDS011;11982;50.810;4.442;2023-11-19T14:15:30;35.13;;;5.25;;
23608;SDS011;11982;50.810;4.442;2023-11-19T14:17:56;44.03;;;6.80;;
23608;SDS011;11982;50.810;4.442;2023-11-19T14:20:21;40.10;;;5.85;;
23608;SDS011;11982;50.810;4.442;2023-11-19T14:22:47;41.90;;;5.75;;
23608;SDS011;11982;50.810;4.442;2023-11-19T14:25:14;43.95;;;6.32;;
23608;SDS011;11982;50.810;4.442;2023-11-19T14:27:40;35.47;;;6.07;;
23608;SDS011;11982;50.810;4.442;2023-11-19T14:30:07;34.45;;;5.40;;
23608;SDS011;11982;50.810;4.442;2023-11-19T14:32:36;34.10;;;6.78;;
23608;SDS011;11982;50.810;4.442;2023-11-19T14:35:03;34.90;;;5.85;;
23608;SDS011;11982;50.810;4.442;2023-11-19T14:37:44;37.45;;;5.97;;
23608;SDS011;11982;50.810;4.442;2023-11-19T14:43:04;45.00;;;7.30;;
23608;SDS011;11982;50.810;4.442;2023-11-19T14:45:30;39.75;;;5.68;;
23608;SDS011;11982;50.810;4.442;2023-11-19T14:47:56;40.20;;;5.63;;
23608;SDS011;11982;50.810;4.442;2023-11-19T14:50:23;40.58;;;6.30;;
23608;SDS011;11982;50.810;4.442;2023-11-19T14:55:29;34.80;;;5.82;;
23608;SDS011;11982;50.810;4.442;2023-11-19T14:57:54;41.65;;;5.82;;
23608;SDS011;11982;50.810;4.442;2023-11-19T15:00:22;34.47;;;5.30;;
23608;SDS011;11982;50.810;4.442;2023-11-19T15:02:48;44.70;;;6.57;;
23608;SDS011;11982;50.810;4.442;2023-11-19T15:05:13;38.33;;;5.18;;
23608;SDS011;11982;50.810;4.442;2023-11-19T15:07:40;30.48;;;6.00;;